Atascadero, California
Current Conditions -  °F | °C
As of 12:53 AM on Thursday 27 Nov 2014 (Local Time) from KPRB Reporting Station
Clear Clear  
Wind Chill:   Ceiling: Unl
Heat Index:   Visibility: 10mi
Dew Point:   Wind: 0mph
Humidity: 68%   Direction: NA
Pressure: 30.22"   Gusts: NA
Location:  35.49°N, 120.66°W
Report Text: KPRB 270853Z AUTO 00000KT 10SM CLR 07/02 A3022 RMK AO2 SLP231 T00720017 56002 TSNO
Loading
Personal Weather Stations






























Interactive Weather Map New forecast layout! Learn more

10-Day Weather Forecast

Advertisements
Track Severe Weather on mobile